Time;durP1;ratioP1;P1;durP2;ratioP2;P2;SDS_P1;SDS_P2;PMS_P1;PMS_P2;Temp;Humidity;BMP_temperature;BMP_pressure;BME280_temperature;BME280_humidity;BME280_pressure;Samples;Min_cycle;Max_cycle;Signal;HPM_P1;HPM_P2
2023/05/01 00:00:14;;;;;;;3.75;1.50;;;;;;;11.71;100.00;100921.78;685812;28;1335;-75
2023/05/01 00:00:46;;;;;;;2.70;1.40;;;;;;;11.67;100.00;100917.44;684274;28;1319;-75
2023/05/01 00:01:07;;;;;;;3.03;1.40;;;;;;;11.68;100.00;100902.56;682565;28;4385;-76
2023/05/01 00:01:28;;;;;;;3.83;1.50;;;;;;;11.66;100.00;100925.25;684083;28;1375;-75
2023/05/01 00:01:48;;;;;;;4.25;1.50;;;;;;;11.67;100.00;100903.44;683330;28;1308;-76
2023/05/01 00:02:09;;;;;;;3.27;1.27;;;;;;;11.66;100.00;100913.06;684513;28;1169;-75
2023/05/01 00:02:30;;;;;;;3.10;1.30;;;;;;;11.63;100.00;100925.28;684997;28;1133;-75
2023/05/01 00:02:51;;;;;;;2.38;1.35;;;;;;;11.67;100.00;100943.63;682619;28;1232;-75
2023/05/01 00:03:13;;;;;;;3.13;1.33;;;;;;;11.67;100.00;100906.06;687058;28;1383;-75
2023/05/01 00:03:33;;;;;;;3.40;1.50;;;;;;;11.68;100.00;100919.13;683355;28;2509;-75
2023/05/01 00:03:54;;;;;;;3.33;1.40;;;;;;;11.63;100.00;100925.28;685640;28;2506;-75
2023/05/01 00:04:15;;;;;;;4.47;1.70;;;;;;;11.64;100.00;100903.47;685889;28;4318;-74
2023/05/01 00:04:36;;;;;;;3.15;1.48;;;;;;;11.65;100.00;100916.53;686747;28;2625;-75
2023/05/01 00:04:57;;;;;;;3.22;1.50;;;;;;;11.65;100.00;100916.53;684771;28;1192;-75
2023/05/01 00:05:17;;;;;;;2.70;1.48;;;;;;;11.65;100.00;100919.16;683134;28;1473;-75
2023/05/01 00:05:38;;;;;;;2.83;1.50;;;;;;;11.66;100.00;100904.31;688361;28;1324;-75
2023/05/01 00:06:04;;;;;;;2.65;1.45;;;;;;;11.65;100.00;100902.59;688408;28;2654;-75
2023/05/01 00:06:25;;;;;;;3.13;1.60;;;;;;;11.62;100.00;100913.09;686646;28;1525;-75
2023/05/01 00:06:45;;;;;;;4.87;1.60;;;;;;;11.61;100.00;100911.34;691662;28;1914;-75
2023/05/01 00:07:09;;;;;;;3.47;1.60;;;;;;;11.63;100.00;100893.84;688965;28;1339;-75
2023/05/01 00:07:30;;;;;;;2.97;1.60;;;;;;;11.59;100.00;100906.97;688888;28;4748;-75
2023/05/01 00:07:50;;;;;;;3.22;1.70;;;;;;;11.61;100.00;100906.09;689247;28;1251;-73
2023/05/01 00:08:11;;;;;;;3.40;1.50;;;;;;;11.62;100.00;100907.84;687459;28;1390;-75
2023/05/01 00:08:31;;;;;;;3.30;1.50;;;;;;;11.57;100.00;100908.75;684536;28;1363;-75
2023/05/01 00:08:52;;;;;;;4.15;1.50;;;;;;;11.57;100.00;100906.13;686984;28;1137;-75
2023/05/01 00:09:13;;;;;;;2.83;1.50;;;;;;;11.55;100.00;100918.34;685461;28;2622;-75
2023/05/01 00:09:33;;;;;;;3.97;1.50;;;;;;;11.55;100.00;100891.31;689338;28;1383;-75
2023/05/01 00:09:54;;;;;;;5.15;1.80;;;;;;;11.57;100.00;100898.28;686506;28;1172;-75
2023/05/01 00:10:15;;;;;;;4.23;1.50;;;;;;;11.57;100.00;100908.75;688997;28;4263;-75
2023/05/01 00:10:36;;;;;;;2.53;1.50;;;;;;;11.54;100.00;100900.88;689487;28;1346;-75
2023/05/01 00:11:02;;;;;;;2.70;1.50;;;;;;;11.56;100.00;100893.91;686782;28;1366;-76
2023/05/01 00:11:23;;;;;;;2.80;1.40;;;;;;;11.56;100.00;100895.63;687309;28;1481;-75
2023/05/01 00:11:45;;;;;;;3.40;1.40;;;;;;;11.53;100.00;100888.69;681252;28;2379;-76
2023/05/01 00:12:05;;;;;;;4.03;1.55;;;;;;;11.53;100.00;100907.03;684513;28;1434;-75
2023/05/01 00:12:26;;;;;;;4.32;1.60;;;;;;;11.51;100.00;100910.53;684559;28;1518;-75
2023/05/01 00:12:47;;;;;;;4.00;1.60;;;;;;;11.53;100.00;100899.16;686186;28;1292;-75
2023/05/01 00:13:08;;;;;;;3.60;1.50;;;;;;;11.50;100.00;100904.41;684066;28;4265;-76
2023/05/01 00:13:30;;;;;;;2.63;1.40;;;;;;;11.53;100.00;100904.41;679638;29;1364;-75
2023/05/01 00:13:50;;;;;;;3.17;1.40;;;;;;;11.53;100.00;100896.56;684412;28;1177;-75
2023/05/01 00:14:11;;;;;;;3.03;1.50;;;;;;;11.52;100.00;100886.94;689866;28;1338;-75
2023/05/01 00:14:31;;;;;;;3.07;1.50;;;;;;;11.52;100.00;100897.41;689403;28;2291;-75
2023/05/01 00:14:54;;;;;;;2.67;1.50;;;;;;;11.52;100.00;100893.91;687710;28;1180;-75
2023/05/01 00:15:16;;;;;;;2.53;1.50;;;;;;;11.49;100.00;100902.69;689776;28;1315;-75
2023/05/01 00:15:40;;;;;;;3.15;1.50;;;;;;;11.48;100.00;100929.72;692323;28;1291;-75
2023/05/01 00:16:06;;;;;;;3.47;1.52;;;;;;;11.46;100.00;100891.34;691704;28;1155;-75
2023/05/01 00:16:26;;;;;;;3.42;1.60;;;;;;;11.45;100.00;100890.47;689097;28;4839;-75
2023/05/01 00:16:49;;;;;;;3.33;1.60;;;;;;;11.44;100.00;100891.34;685491;28;1327;-76
2023/05/01 00:17:10;;;;;;;3.13;1.60;;;;;;;11.45;100.00;100915.75;688953;28;1352;-76
2023/05/01 00:17:31;;;;;;;3.33;1.80;;;;;;;11.45;100.00;100894.81;687947;28;1268;-76
2023/05/01 00:17:52;;;;;;;3.53;1.77;;;;;;;11.46;100.00;100909.66;685989;28;1180;-75
2023/05/01 00:18:13;;;;;;;4.10;1.83;;;;;;;11.47;100.00;100891.31;687785;28;1252;-75
2023/05/01 00:18:33;;;;;;;4.10;1.60;;;;;;;11.48;100.00;100903.53;687008;28;1232;-76
2023/05/01 00:18:54;;;;;;;3.08;1.42;;;;;;;11.45;100.00;100914.03;685495;28;1323;-75
2023/05/01 00:19:18;;;;;;;3.30;1.50;;;;;;;11.50;100.00;100887.81;690664;28;4310;-75
2023/05/01 00:19:39;;;;;;;3.70;1.50;;;;;;;11.55;100.00;100905.25;687483;28;1239;-75
2023/05/01 00:20:04;;;;;;;4.13;1.60;;;;;;;11.54;100.00;100885.19;682490;28;3612;-75
2023/05/01 00:20:28;;;;;;;2.60;1.50;;;;;;;11.57;100.00;100893.03;682240;28;1293;-76
2023/05/01 00:20:48;;;;;;;2.90;1.50;;;;;;;11.57;100.00;100892.16;681391;28;1153;-75
2023/05/01 00:21:09;;;;;;;4.13;1.60;;;;;;;11.55;100.00;100912.25;682471;28;1324;-76
2023/05/01 00:21:29;;;;;;;3.05;1.50;;;;;;;11.55;100.00;100913.09;682756;28;1408;-75
2023/05/01 00:21:51;;;;;;;2.70;1.53;;;;;;;11.55;100.00;100886.91;685621;28;2487;-75
2023/05/01 00:22:12;;;;;;;3.20;1.60;;;;;;;11.54;100.00;100895.66;689290;28;4453;-75
2023/05/01 00:22:32;;;;;;;3.10;1.60;;;;;;;11.57;100.00;100886.91;689518;28;1295;-76
2023/05/01 00:22:53;;;;;;;2.47;1.50;;;;;;;11.54;100.00;100879.94;688224;28;1372;-75
2023/05/01 00:23:13;;;;;;;3.20;1.55;;;;;;;11.53;100.00;100891.31;687428;28;1308;-75
2023/05/01 00:23:34;;;;;;;3.13;1.60;;;;;;;11.53;100.00;100888.69;687035;28;1268;-75
2023/05/01 00:23:55;;;;;;;3.20;1.60;;;;;;;11.53;100.00;100886.06;687911;28;1132;-75
2023/05/01 00:24:15;;;;;;;4.47;1.55;;;;;;;11.57;100.00;100890.41;690149;28;1366;-75
2023/05/01 00:24:36;;;;;;;4.28;1.65;;;;;;;11.57;100.00;100894.75;687688;28;1180;-75
2023/05/01 00:24:56;;;;;;;2.93;1.63;;;;;;;11.54;100.00;100885.19;687061;28;1188;-75
2023/05/01 00:25:17;;;;;;;3.28;1.67;;;;;;;11.54;100.00;100887.78;684367;28;4364;-75
2023/05/01 00:25:38;;;;;;;2.30;1.50;;;;;;;11.53;100.00;100885.19;690167;28;1323;-75
2023/05/01 00:25:58;;;;;;;2.80;1.63;;;;;;;11.55;100.00;100886.91;686029;28;2285;-75
2023/05/01 00:26:19;;;;;;;3.30;1.80;;;;;;;11.65;100.00;100884.25;690669;28;1374;-75
2023/05/01 00:26:41;;;;;;;3.05;1.60;;;;;;;11.63;100.00;100888.63;690238;28;1987;-75
2023/05/01 00:27:02;;;;;;;3.35;1.67;;;;;;;11.59;100.00;100875.56;686536;28;1496;-76
2023/05/01 00:27:25;;;;;;;3.80;1.80;;;;;;;11.58;100.00;100880.81;682541;29;1523;-75
2023/05/01 00:27:45;;;;;;;3.67;1.80;;;;;;;11.56;100.00;100880.81;684221;28;1677;-75
2023/05/01 00:28:06;;;;;;;3.78;1.75;;;;;;;11.52;100.00;100881.72;684602;28;1668;-75
2023/05/01 00:28:27;;;;;;;4.88;1.80;;;;;;;11.49;100.00;100879.13;685172;28;4287;-75
2023/05/01 00:28:47;;;;;;;4.73;1.70;;;;;;;11.52;100.00;100883.44;686883;28;1501;-76
2023/05/01 00:29:08;;;;;;;3.00;1.70;;;;;;;11.62;100.00;100876.44;687269;28;1466;-75
2023/05/01 00:29:29;;;;;;;2.75;1.50;;;;;;;11.67;100.00;100877.25;686406;28;1378;-75
2023/05/01 00:29:49;;;;;;;3.13;1.40;;;;;;;11.63;100.00;100873.81;691745;28;1236;-75
2023/05/01 00:30:10;;;;;;;3.17;1.53;;;;;;;11.59;100.00;100878.16;690927;28;1255;-75
2023/05/01 00:30:34;;;;;;;3.60;1.67;;;;;;;11.56;100.00;100877.31;689309;28;1354;-75
2023/05/01 00:30:56;;;;;;;3.05;1.70;;;;;;;11.56;100.00;100886.06;686601;28;1125;-75
2023/05/01 00:31:17;;;;;;;3.45;1.75;;;;;;;11.54;100.00;100889.56;683938;28;4365;-76
2023/05/01 00:31:40;;;;;;;3.43;1.70;;;;;;;11.52;100.00;100901.75;685605;28;1302;-75
2023/05/01 00:32:01;;;;;;;3.88;1.70;;;;;;;11.50;100.00;100883.44;685290;28;1192;-75
2023/05/01 00:32:24;;;;;;;3.67;1.75;;;;;;;11.44;100.00;100878.25;687569;28;1297;-75
2023/05/01 00:32:45;;;;;;;3.90;1.90;;;;;;;11.43;100.00;100876.50;680721;28;1469;-75
2023/05/01 00:33:05;;;;;;;3.35;1.83;;;;;;;11.40;100.00;100919.28;682600;29;1292;-75
2023/05/01 00:33:27;;;;;;;3.35;1.70;;;;;;;11.38;100.00;100886.13;682375;29;1481;-76
2023/05/01 00:33:47;;;;;;;3.28;1.60;;;;;;;11.37;100.00;100892.25;683392;28;1444;-75
2023/05/01 00:34:10;;;;;;;3.25;1.60;;;;;;;11.37;100.00;100908.81;681352;29;4343;-76
2023/05/01 00:34:30;;;;;;;4.20;1.80;;;;;;;11.34;100.00;100902.72;681168;29;2479;-76
2023/05/01 00:34:51;;;;;;;4.47;1.80;;;;;;;11.34;100.00;100876.53;683129;28;1200;-76
2023/05/01 00:35:12;;;;;;;4.35;1.60;;;;;;;11.29;100.00;100894.91;684259;28;1331;-76
2023/05/01 00:35:34;;;;;;;3.13;1.70;;;;;;;11.30;100.00;100893.13;686928;28;1300;-75
2023/05/01 00:35:55;;;;;;;3.35;1.80;;;;;;;11.28;100.00;100885.28;686856;28;1264;-75
2023/05/01 00:36:15;;;;;;;3.05;1.70;;;;;;;11.28;100.00;100887.06;684029;28;1253;-75
2023/05/01 00:36:36;;;;;;;2.70;1.60;;;;;;;11.29;100.00;100894.03;685240;28;1212;-75
2023/05/01 00:36:57;;;;;;;3.10;1.60;;;;;;;11.25;100.00;100901.88;683818;28;1334;-76
2023/05/01 00:37:18;;;;;;;2.80;1.50;;;;;;;11.24;100.00;100917.59;688111;28;4321;-75
2023/05/01 00:37:38;;;;;;;3.25;1.60;;;;;;;11.22;100.00;100873.09;685930;28;1521;-75
2023/05/01 00:37:59;;;;;;;3.00;1.60;;;;;;;11.20;100.00;100905.38;680955;28;3672;-74
2023/05/01 00:38:19;;;;;;;2.97;1.60;;;;;;;11.22;100.00;100908.88;681515;28;2317;-75
2023/05/01 00:38:40;;;;;;;2.85;1.70;;;;;;;11.19;100.00;100903.66;684256;28;1335;-75
2023/05/01 00:39:01;;;;;;;3.07;1.70;;;;;;;11.19;100.00;100890.59;683359;28;1043;-75
2023/05/01 00:39:24;;;;;;;3.42;1.70;;;;;;;11.18;100.00;100878.38;687258;28;1451;-75
2023/05/01 00:39:44;;;;;;;3.42;1.85;;;;;;;11.16;100.00;100874.88;684554;28;1316;-75
2023/05/01 00:40:06;;;;;;;2.83;1.60;;;;;;;11.17;100.00;100880.13;684316;28;1213;-75
2023/05/01 00:40:27;;;;;;;4.22;1.73;;;;;;;11.17;100.00;100902.78;684393;28;4751;-76
2023/05/01 00:40:48;;;;;;;3.55;1.65;;;;;;;11.14;100.00;100889.72;687440;28;1312;-76
2023/05/01 00:41:08;;;;;;;3.03;1.90;;;;;;;11.15;100.00;100899.31;689371;28;1256;-76
2023/05/01 00:41:29;;;;;;;3.22;1.88;;;;;;;11.14;100.00;100908.03;685280;28;1240;-76
2023/05/01 00:41:54;;;;;;;3.95;1.92;;;;;;;11.17;100.00;100889.72;683523;28;2299;-76
2023/05/01 00:42:15;;;;;;;4.43;1.83;;;;;;;11.14;100.00;100869.66;687264;28;5012;-75
2023/05/01 00:42:38;;;;;;;4.05;1.77;;;;;;;11.16;100.00;100904.53;690102;28;1270;-75
2023/05/01 00:42:58;;;;;;;3.30;1.63;;;;;;;11.20;100.00;100905.38;693710;28;1293;-76
2023/05/01 00:43:19;;;;;;;3.07;1.67;;;;;;;11.17;100.00;100879.25;689821;28;4346;-75
2023/05/01 00:43:40;;;;;;;4.10;1.85;;;;;;;11.15;100.00;100881.88;692657;28;1517;-76
2023/05/01 00:44:02;;;;;;;5.25;2.05;;;;;;;11.12;100.00;100874.03;686204;28;1046;-76
2023/05/01 00:44:22;;;;;;;3.95;1.83;;;;;;;11.12;100.00;100897.59;686813;28;2403;-75
2023/05/01 00:44:43;;;;;;;4.07;1.80;;;;;;;11.11;100.00;100913.28;687102;28;1279;-76
2023/05/01 00:45:06;;;;;;;4.20;1.90;;;;;;;11.09;100.00;100887.13;688146;28;1401;-75
2023/05/01 00:45:26;;;;;;;3.22;1.58;;;;;;;11.07;100.00;100876.66;689816;28;1654;-75
2023/05/01 00:45:50;;;;;;;3.50;1.60;;;;;;;11.06;100.00;100871.44;686045;28;1411;-75
2023/05/01 00:46:11;;;;;;;3.38;1.70;;;;;;;11.04;100.00;100894.97;682485;28;4319;-75
2023/05/01 00:46:33;;;;;;;2.88;1.73;;;;;;;11.06;100.00;100905.44;682790;28;1983;-75
2023/05/01 00:46:55;;;;;;;3.55;1.75;;;;;;;11.06;100.00;100889.72;686208;28;1297;-76
2023/05/01 00:47:16;;;;;;;4.10;1.70;;;;;;;11.05;100.00;100886.25;687054;28;1318;-76
2023/05/01 00:47:37;;;;;;;3.90;1.60;;;;;;;11.02;100.00;100890.63;689464;28;1299;-76
2023/05/01 00:47:57;;;;;;;4.10;1.70;;;;;;;11.03;100.00;100897.59;686436;28;1109;-75
2023/05/01 00:48:18;;;;;;;3.35;1.60;;;;;;;11.01;100.00;100874.06;690190;28;1263;-76
2023/05/01 00:48:39;;;;;;;3.60;1.70;;;;;;;11.02;100.00;100875.81;687357;28;1331;-76
2023/05/01 00:49:00;;;;;;;5.40;1.97;;;;;;;11.00;100.00;100884.53;688316;28;1255;-75
2023/05/01 00:49:20;;;;;;;3.70;1.70;;;;;;;10.98;100.00;100883.66;686386;28;4379;-75
2023/05/01 00:49:43;;;;;;;3.97;1.77;;;;;;;10.97;100.00;100874.09;687688;28;1188;-75
2023/05/01 00:50:05;;;;;;;3.17;1.70;;;;;;;10.95;100.00;100875.81;682601;28;1245;-75
2023/05/01 00:50:26;;;;;;;2.80;1.55;;;;;;;10.95;100.00;100865.38;687607;28;877;-75
2023/05/01 00:50:48;;;;;;;2.80;1.60;;;;;;;10.91;100.00;100885.44;684590;28;1387;-74
2023/05/01 00:51:09;;;;;;;4.10;1.90;;;;;;;10.90;100.00;100902.88;687822;28;1469;-75
2023/05/01 00:51:30;;;;;;;3.75;1.80;;;;;;;10.91;100.00;100895.91;687382;28;1347;-75
2023/05/01 00:51:54;;;;;;;3.28;1.70;;;;;;;10.93;100.00;100874.97;687123;28;2309;-75
2023/05/01 00:52:15;;;;;;;4.53;1.83;;;;;;;10.90;100.00;100860.16;688670;28;4333;-76
2023/05/01 00:52:36;;;;;;;3.72;1.80;;;;;;;10.92;100.00;100888.91;687148;28;1747;-75
2023/05/01 00:52:57;;;;;;;3.33;1.80;;;;;;;10.91;100.00;100872.38;681038;28;1323;-76
2023/05/01 00:53:19;;;;;;;3.65;1.90;;;;;;;10.93;100.00;100888.06;681092;29;1336;-76
2023/05/01 00:53:42;;;;;;;4.38;1.92;;;;;;;10.92;100.00;100868.00;683689;28;1267;-76
2023/05/01 00:54:04;;;;;;;3.92;1.80;;;;;;;10.92;100.00;100862.75;683950;28;1511;-76
2023/05/01 00:54:27;;;;;;;3.55;1.88;;;;;;;10.91;100.00;100880.22;689479;28;2354;-76
2023/05/01 00:54:50;;;;;;;3.53;1.80;;;;;;;10.93;100.00;100864.50;691781;28;1600;-76
2023/05/01 00:55:12;;;;;;;4.15;1.98;;;;;;;10.93;100.00;100872.34;685727;28;4328;-76
2023/05/01 00:55:34;;;;;;;4.40;1.80;;;;;;;10.93;100.00;100867.13;682777;28;1377;-75
2023/05/01 00:55:57;;;;;;;4.22;1.92;;;;;;;10.93;100.00;100860.13;684068;28;1265;-75
2023/05/01 00:56:17;;;;;;;4.43;2.00;;;;;;;10.94;100.00;100863.63;685607;28;1394;-75
2023/05/01 00:56:38;;;;;;;4.35;1.80;;;;;;;10.92;100.00;100858.38;684736;28;1348;-75
2023/05/01 00:56:59;;;;;;;4.30;1.88;;;;;;;10.93;100.00;100861.91;684492;28;1180;-75
2023/05/01 00:57:20;;;;;;;4.22;1.92;;;;;;;10.90;100.00;100868.00;687744;28;2691;-75
2023/05/01 00:57:41;;;;;;;4.07;2.05;;;;;;;10.88;100.00;100878.47;690057;28;1296;-75
2023/05/01 00:58:03;;;;;;;4.15;1.90;;;;;;;10.94;100.00;100876.69;686569;28;1378;-76
2023/05/01 00:58:24;;;;;;;4.32;2.08;;;;;;;10.95;100.00;100867.97;691608;28;4332;-75
2023/05/01 00:58:50;;;;;;;4.18;2.00;;;;;;;10.95;100.00;100883.66;691543;28;1318;-74
2023/05/01 00:59:11;;;;;;;4.10;2.00;;;;;;;10.95;100.00;100878.44;690414;28;1455;-76
2023/05/01 00:59:32;;;;;;;3.55;2.10;;;;;;;10.92;100.00;100858.38;691112;28;1318;-75
2023/05/01 00:59:52;;;;;;;4.07;2.10;;;;;;;10.93;100.00;100848.81;688660;28;2619;-75
2023/05/01 01:00:13;;;;;;;5.20;2.23;;;;;;;10.94;100.00;100856.66;687146;28;1339;-76
2023/05/01 01:00:34;;;;;;;4.22;2.03;;;;;;;10.95;100.00;100868.88;687545;28;1365;-75
2023/05/01 01:00:55;;;;;;;3.05;1.92;;;;;;;11.00;100.00;100861.00;680278;28;1435;-75
2023/05/01 01:01:16;;;;;;;3.17;1.90;;;;;;;11.00;100.00;100898.47;681224;28;4447;-75
2023/05/01 01:01:37;;;;;;;3.20;1.80;;;;;;;11.00;100.00;100874.94;682289;29;1402;-75
2023/05/01 01:01:57;;;;;;;4.30;1.90;;;;;;;10.99;100.00;100881.03;683348;28;1459;-75
2023/05/01 01:02:18;;;;;;;3.97;1.90;;;;;;;10.97;100.00;100848.78;687465;28;1358;-75
2023/05/01 01:02:39;;;;;;;3.20;1.90;;;;;;;10.97;100.00;100879.31;685270;28;1199;-75
2023/05/01 01:03:00;;;;;;;3.50;1.80;;;;;;;10.94;100.00;100871.47;685443;28;1051;-76
2023/05/01 01:03:21;;;;;;;4.00;1.70;;;;;;;10.95;100.00;100852.28;689668;28;1242;-76
2023/05/01 01:03:42;;;;;;;4.07;2.00;;;;;;;10.94;100.00;100856.66;687695;28;1399;-75
2023/05/01 01:04:03;;;;;;;3.67;2.00;;;;;;;10.94;100.00;100866.22;686314;28;1334;-75
2023/05/01 01:04:23;;;;;;;3.83;1.90;;;;;;;10.91;100.00;100854.06;687751;28;4480;-75
2023/05/01 01:04:46;;;;;;;3.50;1.80;;;;;;;10.93;100.00;100864.50;687230;28;1394;-76
2023/05/01 01:05:07;;;;;;;3.85;1.95;;;;;;;10.93;100.00;100851.44;680692;28;1482;-75
2023/05/01 01:05:31;;;;;;;3.53;1.90;;;;;;;10.94;100.00;100881.91;680969;29;1508;-75
2023/05/01 01:05:58;;;;;;;4.78;2.13;;;;;;;10.93;100.00;100849.69;682687;28;1187;-76
2023/05/01 01:06:26;;;;;;;3.58;1.90;;;;;;;10.94;100.00;100882.81;683395;28;1569;-75
2023/05/01 01:07:10;;;;;;;4.90;2.10;;;;;;;11.00;100.00;100856.63;686207;28;1979;-75
2023/05/01 01:07:54;;;;;;;4.38;2.05;;;;;;;11.01;100.00;100849.66;687530;28;4781;-75
2023/05/01 01:08:38;;;;;;;4.30;2.05;;;;;;;10.97;100.00;100846.19;686420;28;1394;-75
2023/05/01 01:09:25;;;;;;;4.13;2.00;;;;;;;10.92;100.00;100847.06;686638;28;1392;-76
2023/05/01 01:10:17;;;;;;;3.75;2.03;;;;;;;10.94;100.00;100846.19;688607;28;2445;-76
2023/05/01 01:11:00;;;;;;;4.22;1.95;;;;;;;10.92;100.00;100845.31;685770;28;5020;-75
2023/05/01 01:11:27;;;;;;;4.10;2.25;;;;;;;10.93;100.00;100849.69;685224;28;1436;-75
2023/05/01 01:12:03;;;;;;;4.10;2.13;;;;;;;10.95;100.00;100842.72;682740;28;1589;-75
2023/05/01 01:12:32;;;;;;;4.50;2.00;;;;;;;10.95;100.00;100840.09;683870;28;2614;-75
2023/05/01 01:13:18;;;;;;;6.40;2.08;;;;;;;10.94;100.00;100837.47;683449;28;1353;-75
2023/05/01 01:13:46;;;;;;;3.72;1.98;;;;;;;10.93;100.00;100861.91;683353;28;4818;-75
2023/05/01 01:14:26;;;;;;;4.47;2.00;;;;;;;10.92;100.00;100845.31;682906;28;1566;-75
2023/05/01 01:15:00;;;;;;;4.30;2.00;;;;;;;10.93;100.00;100838.34;683518;28;1474;-75
2023/05/01 01:15:43;;;;;;;3.92;2.00;;;;;;;10.93;100.00;100838.34;686505;28;2610;-76
2023/05/01 01:16:22;;;;;;;4.13;1.88;;;;;;;11.04;100.00;100831.34;689734;28;3008;-75
2023/05/01 01:17:05;;;;;;;3.47;2.10;;;;;;;11.02;100.00;100835.69;688451;28;5053;-75
2023/05/01 01:17:36;;;;;;;4.15;1.95;;;;;;;10.98;100.00;100836.56;689914;28;1552;-75
2023/05/01 01:18:17;;;;;;;3.72;1.85;;;;;;;10.99;100.00;100840.94;685660;28;1160;-75
2023/05/01 01:18:49;;;;;;;3.70;2.05;;;;;;;10.94;100.00;100840.06;676737;29;1542;-75
2023/05/01 01:19:41;;;;;;;4.45;2.22;;;;;;;10.88;100.00;100836.63;685048;28;4483;-76
2023/05/01 01:20:25;;;;;;;4.22;2.08;;;;;;;10.87;100.00;100839.25;687575;28;1168;-75
2023/05/01 01:21:01;;;;;;;3.97;1.92;;;;;;;10.85;100.00;100846.22;689013;28;1753;-75
2023/05/01 01:21:33;;;;;;;3.38;2.00;;;;;;;10.84;100.00;100837.50;690310;28;1385;-75
2023/05/01 01:22:00;;;;;;;3.83;2.10;;;;;;;10.82;100.00;100831.41;685528;28;2467;-75
2023/05/01 01:22:23;;;;;;;3.65;2.05;;;;;;;10.81;100.00;100840.09;683273;28;4275;-75
2023/05/01 01:22:50;;;;;;;4.80;2.20;;;;;;;10.81;100.00;100842.72;686328;28;1378;-75
2023/05/01 01:23:48;;;;;;;4.85;2.30;;;;;;;10.85;100.00;100831.38;685988;28;1327;-75
2023/05/01 01:24:25;;;;;;;5.18;2.00;;;;;;;10.84;100.00;100828.78;687021;28;1395;-75
2023/05/01 01:25:25;;;;;;;3.42;2.00;;;;;;;10.83;100.00;100835.75;687473;28;1303;-76
2023/05/01 01:26:10;;;;;;;4.47;2.00;;;;;;;10.82;100.00;100836.63;686542;28;4816;-75
2023/05/01 01:26:36;;;;;;;4.15;2.15;;;;;;;10.83;100.00;100838.38;689612;28;1267;-75
2023/05/01 01:26:57;;;;;;;4.20;2.20;;;;;;;10.83;100.00;100830.53;688090;28;1368;-75
2023/05/01 01:27:32;;;;;;;3.90;2.17;;;;;;;10.81;100.00;100834.88;684711;28;1442;-75
2023/05/01 01:28:11;;;;;;;4.20;2.15;;;;;;;10.81;100.00;100837.50;682888;28;1356;-75
2023/05/01 01:28:51;;;;;;;6.10;2.60;;;;;;;10.79;100.00;100831.41;683086;28;6515;-76
2023/05/01 01:29:20;;;;;;;3.50;2.00;;;;;;;10.79;100.00;100838.41;688310;28;1442;-76
2023/05/01 01:30:06;;;;;;;4.63;2.00;;;;;;;10.77;100.00;100833.16;689571;28;1404;-75
2023/05/01 01:31:00;;;;;;;3.55;1.90;;;;;;;10.77;100.00;100833.16;686388;28;1465;-75
2023/05/01 01:31:32;;;;;;;4.47;2.30;;;;;;;10.80;100.00;100837.50;684766;28;4347;-75
2023/05/01 01:32:08;;;;;;;3.90;2.00;;;;;;;10.79;100.00;100841.88;682220;28;1259;-75
2023/05/01 01:33:16;;;;;;;4.18;2.15;;;;;;;10.77;100.00;100833.16;687611;28;1332;-76
2023/05/01 01:33:53;;;;;;;4.07;2.10;;;;;;;10.76;100.00;100828.81;689561;28;1291;-75
2023/05/01 01:34:19;;;;;;;3.67;2.10;;;;;;;10.75;100.00;100834.91;688564;28;4282;-76
2023/05/01 01:34:47;;;;;;;3.20;1.90;;;;;;;10.76;100.00;100834.03;688115;28;1395;-75
2023/05/01 01:35:17;;;;;;;4.03;2.05;;;;;;;10.75;100.00;100836.66;689562;28;1431;-75
2023/05/01 01:35:45;;;;;;;4.22;2.10;;;;;;;10.74;100.00;100827.94;686092;28;1495;-73
2023/05/01 01:36:13;;;;;;;4.85;2.38;;;;;;;10.75;100.00;100836.66;681583;29;1490;-73
2023/05/01 01:36:39;;;;;;;4.20;2.10;;;;;;;10.75;100.00;100829.69;683263;28;2331;-74
2023/05/01 01:37:18;;;;;;;3.53;1.92;;;;;;;10.73;100.00;100821.84;683611;28;1379;-74
2023/05/01 01:38:04;;;;;;;3.60;2.00;;;;;;;10.73;100.00;100839.28;683214;28;4928;-74
2023/05/01 01:38:35;;;;;;;4.72;2.25;;;;;;;10.72;100.00;100830.56;685039;28;1359;-73
2023/05/01 01:39:07;;;;;;;5.15;2.50;;;;;;;10.72;100.00;100827.09;684089;28;1227;-74
2023/05/01 01:39:36;;;;;;;4.75;2.30;;;;;;;10.72;100.00;100829.69;687639;28;1483;-74
2023/05/01 01:40:06;;;;;;;4.95;2.38;;;;;;;10.71;100.00;100834.03;685983;28;1339;-74
2023/05/01 01:40:37;;;;;;;4.53;2.08;;;;;;;10.70;100.00;100827.09;689104;28;4800;-74
2023/05/01 01:41:08;;;;;;;3.47;2.30;;;;;;;10.70;100.00;100828.81;685147;28;1399;-74
2023/05/01 01:41:32;;;;;;;4.13;2.30;;;;;;;10.70;100.00;100826.19;684944;28;1590;-73
2023/05/01 01:41:55;;;;;;;4.22;2.10;;;;;;;10.68;100.00;100836.66;685376;28;2493;-74
2023/05/01 01:42:20;;;;;;;4.28;2.10;;;;;;;10.65;100.00;100828.84;688906;28;5000;-74
2023/05/01 01:42:45;;;;;;;4.03;2.22;;;;;;;10.62;100.00;100827.97;686500;28;1684;-74
2023/05/01 01:43:12;;;;;;;3.70;2.30;;;;;;;10.60;100.00;100822.75;686532;28;4334;-74
2023/05/01 01:43:38;;;;;;;3.78;2.30;;;;;;;10.60;100.00;100835.81;685022;28;1362;-73
2023/05/01 01:44:33;;;;;;;4.70;2.20;;;;;;;10.59;100.00;100820.13;686210;28;1584;-75
2023/05/01 01:44:55;;;;;;;4.00;2.20;;;;;;;10.61;100.00;100834.94;685920;28;1555;-74
2023/05/01 01:45:19;;;;;;;4.05;2.33;;;;;;;10.59;100.00;100825.34;687608;28;1495;-74
2023/05/01 01:45:42;;;;;;;4.97;2.42;;;;;;;10.58;100.00;100829.72;690010;28;1419;-74
2023/05/01 01:46:05;;;;;;;3.80;2.10;;;;;;;10.57;100.00;100820.13;686673;28;1268;-75
2023/05/01 01:46:34;;;;;;;3.90;2.17;;;;;;;10.56;100.00;100824.50;686913;28;6521;-75
2023/05/01 01:46:57;;;;;;;4.32;2.20;;;;;;;10.56;100.00;100834.97;689012;28;1342;-75
2023/05/01 01:47:21;;;;;;;3.90;2.30;;;;;;;10.55;100.00;100838.44;687260;28;1338;-75
2023/05/01 01:47:50;;;;;;;3.58;2.10;;;;;;;10.54;100.00;100813.16;688212;28;1474;-74
2023/05/01 01:48:16;;;;;;;3.78;2.20;;;;;;;10.52;100.00;100833.22;683761;28;1358;-74
2023/05/01 01:48:41;;;;;;;3.92;2.22;;;;;;;10.55;100.00;100846.28;684747;28;1324;-75
2023/05/01 01:49:16;;;;;;;4.80;2.22;;;;;;;10.55;100.00;100814.06;683965;28;2372;-75
2023/05/01 01:49:43;;;;;;;3.35;2.00;;;;;;;10.55;100.00;100820.16;688026;28;4764;-75
2023/05/01 01:50:06;;;;;;;4.07;2.10;;;;;;;10.56;100.00;100819.28;686309;28;1229;-75
2023/05/01 01:50:30;;;;;;;4.13;2.15;;;;;;;10.54;100.00;100813.16;687520;28;1466;-75
2023/05/01 01:50:53;;;;;;;4.03;2.20;;;;;;;10.54;100.00;100809.69;683614;28;1312;-75
2023/05/01 01:51:18;;;;;;;4.32;2.20;;;;;;;10.55;100.00;100812.31;684376;28;1476;-75
2023/05/01 01:51:41;;;;;;;4.20;2.20;;;;;;;10.54;100.00;100820.16;687184;28;1365;-75
2023/05/01 01:52:03;;;;;;;4.40;2.40;;;;;;;10.53;100.00;100819.25;686137;28;1777;-75
2023/05/01 01:52:27;;;;;;;5.47;2.25;;;;;;;10.51;100.00;100826.25;686715;28;4281;-75
2023/05/01 01:52:50;;;;;;;3.97;2.20;;;;;;;10.51;100.00;100823.63;686497;28;1462;-75
2023/05/01 01:53:15;;;;;;;4.55;2.40;;;;;;;10.49;100.00;100829.75;689976;28;1430;-75
2023/05/01 01:53:37;;;;;;;3.75;2.08;;;;;;;10.50;100.00;100819.28;687233;28;1204;-75
2023/05/01 01:54:00;;;;;;;3.75;2.17;;;;;;;10.49;100.00;100835.81;686394;28;1354;-75
2023/05/01 01:54:28;;;;;;;4.97;2.42;;;;;;;10.49;100.00;100814.06;687269;28;1448;-76
2023/05/01 01:54:59;;;;;;;4.43;2.33;;;;;;;10.48;100.00;100813.19;685381;28;1379;-75
2023/05/01 01:55:24;;;;;;;4.05;2.10;;;;;;;10.47;100.00;100808.84;686020;28;4308;-75
2023/05/01 01:55:48;;;;;;;4.55;2.38;;;;;;;10.46;100.00;100817.53;690576;28;1363;-75
2023/05/01 01:56:09;;;;;;;3.38;2.00;;;;;;;10.47;100.00;100834.97;687717;28;1419;-75
2023/05/01 01:56:33;;;;;;;3.65;2.15;;;;;;;10.46;100.00;100817.53;682228;28;1380;-75
2023/05/01 01:56:57;;;;;;;4.10;2.20;;;;;;;10.47;100.00;100829.75;680905;28;1400;-75
2023/05/01 01:57:20;;;;;;;3.72;2.20;;;;;;;10.45;100.00;100831.47;678776;29;2551;-75
2023/05/01 01:57:44;;;;;;;4.60;2.22;;;;;;;10.45;100.00;100807.94;679048;29;1433;-75
2023/05/01 01:58:07;;;;;;;5.05;2.20;;;;;;;10.45;100.00;100805.34;681970;28;1217;-75
2023/05/01 01:58:30;;;;;;;4.05;2.20;;;;;;;10.44;100.00;100803.63;687114;28;4869;-75